sensor_id;sensor_type;location;lat;lon;timestamp;temperature;humidity
72576;DHT22;60613;48.658;2.328;2023-03-07T07:02:40;19.10;27.00
72576;DHT22;60613;48.658;2.328;2023-03-07T07:05:05;18.80;28.00
72576;DHT22;60613;48.658;2.328;2023-03-07T07:07:34;18.70;28.20
72576;DHT22;60613;48.658;2.328;2023-03-07T07:09:59;18.70;28.80
72576;DHT22;60613;48.658;2.328;2023-03-07T07:12:25;19.00;29.90
72576;DHT22;60613;48.658;2.328;2023-03-07T07:14:51;19.40;30.80
72576;DHT22;60613;48.658;2.328;2023-03-07T07:17:17;19.60;31.00
72576;DHT22;60613;48.658;2.328;2023-03-07T07:19:42;19.90;32.00
72576;DHT22;60613;48.658;2.328;2023-03-07T07:22:08;20.00;33.10
72576;DHT22;60613;48.658;2.328;2023-03-07T07:24:37;20.20;35.80
72576;DHT22;60613;48.658;2.328;2023-03-07T07:27:03;20.40;34.70
72576;DHT22;60613;48.658;2.328;2023-03-07T07:29:29;20.50;34.00
72576;DHT22;60613;48.658;2.328;2023-03-07T07:31:54;20.60;32.70
72576;DHT22;60613;48.658;2.328;2023-03-07T07:34:20;20.60;34.50
72576;DHT22;60613;48.658;2.328;2023-03-07T07:36:46;20.70;30.70
72576;DHT22;60613;48.658;2.328;2023-03-07T07:39:12;20.70;30.40
72576;DHT22;60613;48.658;2.328;2023-03-07T07:41:39;20.80;31.40
72576;DHT22;60613;48.658;2.328;2023-03-07T07:44:05;20.80;30.40
72576;DHT22;60613;48.658;2.328;2023-03-07T07:46:30;20.90;29.90
72576;DHT22;60613;48.658;2.328;2023-03-07T07:48:56;21.00;29.80
72576;DHT22;60613;48.658;2.328;2023-03-07T07:51:22;21.00;29.30
72576;DHT22;60613;48.658;2.328;2023-03-07T07:53:47;21.10;29.40
72576;DHT22;60613;48.658;2.328;2023-03-07T07:56:13;21.10;29.20
72576;DHT22;60613;48.658;2.328;2023-03-07T07:58:39;21.20;28.80
72576;DHT22;60613;48.658;2.328;2023-03-07T08:01:31;21.30;28.60
72576;DHT22;60613;48.658;2.328;2023-03-07T08:03:57;21.30;28.40
72576;DHT22;60613;48.658;2.328;2023-03-07T08:06:25;21.30;28.70
72576;DHT22;60613;48.658;2.328;2023-03-07T08:08:51;21.40;28.60
72576;DHT22;60613;48.658;2.328;2023-03-07T08:11:18;21.40;28.70
72576;DHT22;60613;48.658;2.328;2023-03-07T08:13:44;21.40;29.20
72576;DHT22;60613;48.658;2.328;2023-03-07T08:16:12;21.50;29.30
72576;DHT22;60613;48.658;2.328;2023-03-07T08:18:40;21.50;29.60
72576;DHT22;60613;48.658;2.328;2023-03-07T08:21:06;21.50;29.40
72576;DHT22;60613;48.658;2.328;2023-03-07T08:23:33;21.50;29.50
72576;DHT22;60613;48.658;2.328;2023-03-07T08:26:06;21.50;29.40
72576;DHT22;60613;48.658;2.328;2023-03-07T08:28:33;21.50;29.60
72576;DHT22;60613;48.658;2.328;2023-03-07T08:31:05;21.50;29.60
72576;DHT22;60613;48.658;2.328;2023-03-07T08:33:31;21.50;28.80
72576;DHT22;60613;48.658;2.328;2023-03-07T08:35:58;21.50;28.70
72576;DHT22;60613;48.658;2.328;2023-03-07T08:38:24;21.50;28.70
72576;DHT22;60613;48.658;2.328;2023-03-07T08:40:51;21.50;28.80
72576;DHT22;60613;48.658;2.328;2023-03-07T08:43:16;21.50;28.70
72576;DHT22;60613;48.658;2.328;2023-03-07T08:45:42;21.50;28.90
72576;DHT22;60613;48.658;2.328;2023-03-07T08:48:08;21.50;28.60
72576;DHT22;60613;48.658;2.328;2023-03-07T08:50:35;21.50;29.00
72576;DHT22;60613;48.658;2.328;2023-03-07T08:53:01;21.60;30.20
72576;DHT22;60613;48.658;2.328;2023-03-07T08:55:27;21.70;28.80
72576;DHT22;60613;48.658;2.328;2023-03-07T08:57:52;21.70;28.70
72576;DHT22;60613;48.658;2.328;2023-03-07T09:00:18;21.80;28.60
72576;DHT22;60613;48.658;2.328;2023-03-07T09:02:44;21.80;28.30
72576;DHT22;60613;48.658;2.328;2023-03-07T09:05:10;21.80;28.30
72576;DHT22;60613;48.658;2.328;2023-03-07T09:07:35;21.90;28.30
72576;DHT22;60613;48.658;2.328;2023-03-07T09:10:01;21.90;28.30
72576;DHT22;60613;48.658;2.328;2023-03-07T09:12:27;22.00;28.10
72576;DHT22;60613;48.658;2.328;2023-03-07T09:14:53;22.00;28.00
72576;DHT22;60613;48.658;2.328;2023-03-07T09:17:19;22.00;28.10
72576;DHT22;60613;48.658;2.328;2023-03-07T09:19:44;22.00;28.20
72576;DHT22;60613;48.658;2.328;2023-03-07T09:22:10;22.00;28.10
72576;DHT22;60613;48.658;2.328;2023-03-07T09:24:36;22.00;28.10
72576;DHT22;60613;48.658;2.328;2023-03-07T09:27:01;22.00;28.10
72576;DHT22;60613;48.658;2.328;2023-03-07T09:29:27;22.00;28.10
72576;DHT22;60613;48.658;2.328;2023-03-07T09:31:52;22.00;28.10
72576;DHT22;60613;48.658;2.328;2023-03-07T09:34:18;22.00;28.00
72576;DHT22;60613;48.658;2.328;2023-03-07T09:36:44;22.00;28.00
72576;DHT22;60613;48.658;2.328;2023-03-07T09:39:10;22.10;28.10
72576;DHT22;60613;48.658;2.328;2023-03-07T09:44:25;22.00;28.00
72576;DHT22;60613;48.658;2.328;2023-03-07T09:49:50;22.10;27.90
72576;DHT22;60613;48.658;2.328;2023-03-07T09:52:21;22.10;27.90
72576;DHT22;60613;48.658;2.328;2023-03-07T09:54:49;22.10;27.90
72576;DHT22;60613;48.658;2.328;2023-03-07T09:57:24;22.10;27.80
72576;DHT22;60613;48.658;2.328;2023-03-07T09:59:55;22.10;27.80
72576;DHT22;60613;48.658;2.328;2023-03-07T10:02:36;22.10;27.70
72576;DHT22;60613;48.658;2.328;2023-03-07T10:07:44;22.10;27.70
72576;DHT22;60613;48.658;2.328;2023-03-07T10:10:22;22.20;27.60
72576;DHT22;60613;48.658;2.328;2023-03-07T10:18:12;22.10;27.10
72576;DHT22;60613;48.658;2.328;2023-03-07T10:26:58;22.20;26.80
72576;DHT22;60613;48.658;2.328;2023-03-07T10:29:25;22.10;26.70
72576;DHT22;60613;48.658;2.328;2023-03-07T10:31:55;22.20;26.70
72576;DHT22;60613;48.658;2.328;2023-03-07T10:34:29;22.10;26.70
72576;DHT22;60613;48.658;2.328;2023-03-07T10:37:11;22.10;26.70
72576;DHT22;60613;48.658;2.328;2023-03-07T10:42:13;22.20;26.60
72576;DHT22;60613;48.658;2.328;2023-03-07T10:44:41;22.10;26.90
72576;DHT22;60613;48.658;2.328;2023-03-07T10:47:21;22.10;26.70
72576;DHT22;60613;48.658;2.328;2023-03-07T10:49:48;22.10;26.80
72576;DHT22;60613;48.658;2.328;2023-03-07T10:52:31;22.10;26.90
72576;DHT22;60613;48.658;2.328;2023-03-07T10:57:54;22.20;26.60
72576;DHT22;60613;48.658;2.328;2023-03-07T11:00:33;22.20;26.50
72576;DHT22;60613;48.658;2.328;2023-03-07T11:02:58;22.20;26.50
72576;DHT22;60613;48.658;2.328;2023-03-07T11:05:32;22.20;26.50
72576;DHT22;60613;48.658;2.328;2023-03-07T11:08:31;22.20;26.60
72576;DHT22;60613;48.658;2.328;2023-03-07T11:10:59;22.30;26.50
72576;DHT22;60613;48.658;2.328;2023-03-07T11:13:26;22.30;26.50
72576;DHT22;60613;48.658;2.328;2023-03-07T11:16:08;22.30;26.50
72576;DHT22;60613;48.658;2.328;2023-03-07T11:18:39;22.30;26.50
72576;DHT22;60613;48.658;2.328;2023-03-07T11:21:26;22.30;26.50
72576;DHT22;60613;48.658;2.328;2023-03-07T11:24:03;22.30;26.50
72576;DHT22;60613;48.658;2.328;2023-03-07T11:26:38;22.40;26.50
72576;DHT22;60613;48.658;2.328;2023-03-07T11:29:10;22.30;26.50
72576;DHT22;60613;48.658;2.328;2023-03-07T11:37:38;22.30;26.60
72576;DHT22;60613;48.658;2.328;2023-03-07T11:43:23;22.40;26.60
72576;DHT22;60613;48.658;2.328;2023-03-07T11:46:06;22.40;26.60
72576;DHT22;60613;48.658;2.328;2023-03-07T11:51:02;22.40;26.70
72576;DHT22;60613;48.658;2.328;2023-03-07T11:56:33;22.40;26.40
72576;DHT22;60613;48.658;2.328;2023-03-07T12:02:01;22.30;26.50
72576;DHT22;60613;48.658;2.328;2023-03-07T12:13:11;22.50;26.30
72576;DHT22;60613;48.658;2.328;2023-03-07T12:24:26;22.40;26.10
72576;DHT22;60613;48.658;2.328;2023-03-07T12:29:40;22.30;26.20
72576;DHT22;60613;48.658;2.328;2023-03-07T12:32:15;22.30;26.20
72576;DHT22;60613;48.658;2.328;2023-03-07T12:37:43;22.40;26.40
72576;DHT22;60613;48.658;2.328;2023-03-07T12:40:37;22.40;26.30
72576;DHT22;60613;48.658;2.328;2023-03-07T12:43:16;22.40;26.30
72576;DHT22;60613;48.658;2.328;2023-03-07T12:49:11;22.40;26.10
72576;DHT22;60613;48.658;2.328;2023-03-07T12:51:53;22.40;26.30
72576;DHT22;60613;48.658;2.328;2023-03-07T12:54:33;22.40;26.40
72576;DHT22;60613;48.658;2.328;2023-03-07T12:57:33;22.40;26.30
72576;DHT22;60613;48.658;2.328;2023-03-07T13:00:04;22.40;26.50
72576;DHT22;60613;48.658;2.328;2023-03-07T13:02:42;22.40;26.50
72576;DHT22;60613;48.658;2.328;2023-03-07T13:05:18;22.40;26.60
72576;DHT22;60613;48.658;2.328;2023-03-07T13:07:45;22.40;26.60
72576;DHT22;60613;48.658;2.328;2023-03-07T13:10:18;22.40;26.60
72576;DHT22;60613;48.658;2.328;2023-03-07T13:12:45;22.40;26.70
72576;DHT22;60613;48.658;2.328;2023-03-07T13:27:57;22.50;26.30
72576;DHT22;60613;48.658;2.328;2023-03-07T13:45:53;22.40;27.00
72576;DHT22;60613;48.658;2.328;2023-03-07T13:58:57;22.20;26.60
72576;DHT22;60613;48.658;2.328;2023-03-07T14:04:05;22.30;26.80
72576;DHT22;60613;48.658;2.328;2023-03-07T14:09:50;22.50;27.10
72576;DHT22;60613;48.658;2.328;2023-03-07T14:20:04;22.30;28.90
72576;DHT22;60613;48.658;2.328;2023-03-07T14:25:45;22.40;27.60
72576;DHT22;60613;48.658;2.328;2023-03-07T14:30:59;22.50;27.80
72576;DHT22;60613;48.658;2.328;2023-03-07T14:33:31;22.50;27.90
72576;DHT22;60613;48.658;2.328;2023-03-07T14:35:58;22.50;27.60
72576;DHT22;60613;48.658;2.328;2023-03-07T14:38:24;22.50;27.30
72576;DHT22;60613;48.658;2.328;2023-03-07T14:41:00;22.50;28.60
72576;DHT22;60613;48.658;2.328;2023-03-07T14:43:53;22.50;29.70
72576;DHT22;60613;48.658;2.328;2023-03-07T14:46:57;22.40;28.50
72576;DHT22;60613;48.658;2.328;2023-03-07T14:51:53;22.50;28.00
72576;DHT22;60613;48.658;2.328;2023-03-07T14:54:22;22.50;28.30
72576;DHT22;60613;48.658;2.328;2023-03-07T14:56:51;22.60;28.00
72576;DHT22;60613;48.658;2.328;2023-03-07T14:59:17;22.60;28.00
72576;DHT22;60613;48.658;2.328;2023-03-07T15:01:43;22.50;28.00
72576;DHT22;60613;48.658;2.328;2023-03-07T15:04:27;22.60;27.80
72576;DHT22;60613;48.658;2.328;2023-03-07T15:06:58;22.60;27.70
72576;DHT22;60613;48.658;2.328;2023-03-07T15:09:24;22.60;28.00
72576;DHT22;60613;48.658;2.328;2023-03-07T15:12:26;22.60;28.00
72576;DHT22;60613;48.658;2.328;2023-03-07T15:14:56;22.50;27.90
72576;DHT22;60613;48.658;2.328;2023-03-07T15:17:29;22.60;28.40
72576;DHT22;60613;48.658;2.328;2023-03-07T15:20:05;22.50;28.50
72576;DHT22;60613;48.658;2.328;2023-03-07T15:22:35;22.50;28.50
72576;DHT22;60613;48.658;2.328;2023-03-07T15:25:05;22.40;28.90
72576;DHT22;60613;48.658;2.328;2023-03-07T15:27:31;22.50;28.20
72576;DHT22;60613;48.658;2.328;2023-03-07T15:29:58;22.50;28.10
72576;DHT22;60613;48.658;2.328;2023-03-07T15:32:37;22.40;28.90
72576;DHT22;60613;48.658;2.328;2023-03-07T15:38:14;22.40;28.30
72576;DHT22;60613;48.658;2.328;2023-03-07T15:40:41;22.40;28.40
72576;DHT22;60613;48.658;2.328;2023-03-07T15:48:51;22.60;28.00
72576;DHT22;60613;48.658;2.328;2023-03-07T15:51:19;22.60;27.70
72576;DHT22;60613;48.658;2.328;2023-03-07T15:53:57;22.60;27.80
72576;DHT22;60613;48.658;2.328;2023-03-07T15:56:25;22.70;28.00
72576;DHT22;60613;48.658;2.328;2023-03-07T15:58:58;22.70;27.90
72576;DHT22;60613;48.658;2.328;2023-03-07T16:01:26;22.70;27.80
72576;DHT22;60613;48.658;2.328;2023-03-07T16:03:56;22.70;27.90
72576;DHT22;60613;48.658;2.328;2023-03-07T16:06:41;22.70;27.80
72576;DHT22;60613;48.658;2.328;2023-03-07T16:09:17;22.70;28.20
72576;DHT22;60613;48.658;2.328;2023-03-07T16:11:44;22.60;27.90
72576;DHT22;60613;48.658;2.328;2023-03-07T16:14:23;22.70;28.00
72576;DHT22;60613;48.658;2.328;2023-03-07T16:16:59;22.60;27.80
72576;DHT22;60613;48.658;2.328;2023-03-07T16:19:25;22.60;27.80
72576;DHT22;60613;48.658;2.328;2023-03-07T16:21:51;22.60;27.90
72576;DHT22;60613;48.658;2.328;2023-03-07T16:24:16;22.60;27.70
72576;DHT22;60613;48.658;2.328;2023-03-07T16:26:43;22.50;27.50
72576;DHT22;60613;48.658;2.328;2023-03-07T16:29:14;22.40;27.30
72576;DHT22;60613;48.658;2.328;2023-03-07T16:31:40;22.30;26.70
72576;DHT22;60613;48.658;2.328;2023-03-07T16:34:13;22.20;27.50
72576;DHT22;60613;48.658;2.328;2023-03-07T16:36:39;22.10;27.80
72576;DHT22;60613;48.658;2.328;2023-03-07T16:39:07;22.20;27.10
72576;DHT22;60613;48.658;2.328;2023-03-07T16:41:36;22.30;27.00
72576;DHT22;60613;48.658;2.328;2023-03-07T16:44:03;22.30;26.90
72576;DHT22;60613;48.658;2.328;2023-03-07T16:46:29;22.30;26.90
72576;DHT22;60613;48.658;2.328;2023-03-07T16:48:55;22.30;26.90
72576;DHT22;60613;48.658;2.328;2023-03-07T16:51:22;22.40;26.80
72576;DHT22;60613;48.658;2.328;2023-03-07T16:53:50;22.40;27.10
72576;DHT22;60613;48.658;2.328;2023-03-07T16:56:28;22.40;26.80
72576;DHT22;60613;48.658;2.328;2023-03-07T16:58:55;22.50;26.80
72576;DHT22;60613;48.658;2.328;2023-03-07T17:01:21;22.40;27.00
72576;DHT22;60613;48.658;2.328;2023-03-07T17:03:47;22.40;27.00
72576;DHT22;60613;48.658;2.328;2023-03-07T17:06:14;22.40;26.90
72576;DHT22;60613;48.658;2.328;2023-03-07T17:08:41;22.40;26.90
72576;DHT22;60613;48.658;2.328;2023-03-07T17:11:26;22.40;27.00
72576;DHT22;60613;48.658;2.328;2023-03-07T17:13:57;22.40;27.00
72576;DHT22;60613;48.658;2.328;2023-03-07T17:16:23;22.50;26.90
72576;DHT22;60613;48.658;2.328;2023-03-07T17:18:50;22.50;26.90
72576;DHT22;60613;48.658;2.328;2023-03-07T17:21:18;22.50;26.80
72576;DHT22;60613;48.658;2.328;2023-03-07T17:23:45;22.50;27.00
72576;DHT22;60613;48.658;2.328;2023-03-07T17:26:36;22.60;27.60
72576;DHT22;60613;48.658;2.328;2023-03-07T17:29:07;22.60;26.80
72576;DHT22;60613;48.658;2.328;2023-03-07T17:31:34;22.60;26.80
72576;DHT22;60613;48.658;2.328;2023-03-07T17:34:00;22.70;26.70
72576;DHT22;60613;48.658;2.328;2023-03-07T17:36:25;22.70;26.50
72576;DHT22;60613;48.658;2.328;2023-03-07T17:38:51;22.60;26.60
72576;DHT22;60613;48.658;2.328;2023-03-07T17:41:17;22.70;26.70
72576;DHT22;60613;48.658;2.328;2023-03-07T17:43:43;22.70;26.80
72576;DHT22;60613;48.658;2.328;2023-03-07T17:46:10;22.70;26.70
72576;DHT22;60613;48.658;2.328;2023-03-07T17:48:36;22.70;26.80
72576;DHT22;60613;48.658;2.328;2023-03-07T17:51:09;22.70;26.70
72576;DHT22;60613;48.658;2.328;2023-03-07T17:53:36;22.60;26.50
72576;DHT22;60613;48.658;2.328;2023-03-07T17:56:10;22.60;27.70
72576;DHT22;60613;48.658;2.328;2023-03-07T17:58:38;22.50;27.00
72576;DHT22;60613;48.658;2.328;2023-03-07T18:01:07;22.30;27.00
72576;DHT22;60613;48.658;2.328;2023-03-07T18:03:36;22.20;26.70
72576;DHT22;60613;48.658;2.328;2023-03-07T18:06:03;22.10;26.80
72576;DHT22;60613;48.658;2.328;2023-03-07T18:08:30;22.00;27.00
72576;DHT22;60613;48.658;2.328;2023-03-07T18:11:06;21.90;27.50
72576;DHT22;60613;48.658;2.328;2023-03-07T18:13:32;21.90;27.50
72576;DHT22;60613;48.658;2.328;2023-03-07T18:15:58;21.90;27.90
72576;DHT22;60613;48.658;2.328;2023-03-07T18:18:24;21.80;27.80
72576;DHT22;60613;48.658;2.328;2023-03-07T18:23:23;21.70;27.80
72576;DHT22;60613;48.658;2.328;2023-03-07T18:25:59;21.70;27.70
72576;DHT22;60613;48.658;2.328;2023-03-07T18:28:26;21.60;27.60
72576;DHT22;60613;48.658;2.328;2023-03-07T18:31:02;21.60;27.60
72576;DHT22;60613;48.658;2.328;2023-03-07T18:33:28;21.60;27.50
72576;DHT22;60613;48.658;2.328;2023-03-07T18:35:55;21.60;27.40
72576;DHT22;60613;48.658;2.328;2023-03-07T18:38:22;21.50;27.70
72576;DHT22;60613;48.658;2.328;2023-03-07T18:40:47;21.50;27.50
72576;DHT22;60613;48.658;2.328;2023-03-07T18:43:14;21.40;27.50
72576;DHT22;60613;48.658;2.328;2023-03-07T18:45:41;21.50;27.50
72576;DHT22;60613;48.658;2.328;2023-03-07T18:48:09;21.70;27.30
72576;DHT22;60613;48.658;2.328;2023-03-07T18:50:34;21.80;27.10
72576;DHT22;60613;48.658;2.328;2023-03-07T18:53:00;21.90;27.00
72576;DHT22;60613;48.658;2.328;2023-03-07T18:55:25;22.00;26.80
72576;DHT22;60613;48.658;2.328;2023-03-07T18:57:51;22.10;26.80
72576;DHT22;60613;48.658;2.328;2023-03-07T19:00:17;22.10;26.70
72576;DHT22;60613;48.658;2.328;2023-03-07T19:02:43;22.10;26.60
72576;DHT22;60613;48.658;2.328;2023-03-07T19:05:09;22.20;26.70
72576;DHT22;60613;48.658;2.328;2023-03-07T19:07:35;22.20;26.50
72576;DHT22;60613;48.658;2.328;2023-03-07T19:10:00;22.20;26.60
72576;DHT22;60613;48.658;2.328;2023-03-07T19:12:26;22.20;26.50
72576;DHT22;60613;48.658;2.328;2023-03-07T19:14:52;22.20;26.50
72576;DHT22;60613;48.658;2.328;2023-03-07T19:17:17;22.20;26.40
72576;DHT22;60613;48.658;2.328;2023-03-07T19:19:43;22.20;26.40
72576;DHT22;60613;48.658;2.328;2023-03-07T19:22:08;22.20;26.40
72576;DHT22;60613;48.658;2.328;2023-03-07T19:24:35;22.20;26.40
72576;DHT22;60613;48.658;2.328;2023-03-07T19:27:01;22.20;26.30
72576;DHT22;60613;48.658;2.328;2023-03-07T19:29:26;22.20;26.40
72576;DHT22;60613;48.658;2.328;2023-03-07T19:31:52;22.20;26.20
72576;DHT22;60613;48.658;2.328;2023-03-07T19:34:17;22.10;26.30
72576;DHT22;60613;48.658;2.328;2023-03-07T19:36:43;22.20;26.30
72576;DHT22;60613;48.658;2.328;2023-03-07T19:39:09;22.10;26.30
72576;DHT22;60613;48.658;2.328;2023-03-07T19:41:39;22.20;26.40
72576;DHT22;60613;48.658;2.328;2023-03-07T19:44:05;22.20;26.30
72576;DHT22;60613;48.658;2.328;2023-03-07T19:46:36;22.20;26.30
72576;DHT22;60613;48.658;2.328;2023-03-07T19:49:01;22.20;26.20
72576;DHT22;60613;48.658;2.328;2023-03-07T19:51:27;22.20;26.30
72576;DHT22;60613;48.658;2.328;2023-03-07T19:53:53;22.20;26.20
72576;DHT22;60613;48.658;2.328;2023-03-07T19:56:30;22.20;26.20
72576;DHT22;60613;48.658;2.328;2023-03-07T19:58:58;22.20;26.30
72576;DHT22;60613;48.658;2.328;2023-03-07T20:01:24;22.20;26.30
72576;DHT22;60613;48.658;2.328;2023-03-07T20:03:49;22.20;26.20
72576;DHT22;60613;48.658;2.328;2023-03-07T20:06:20;22.20;26.20
72576;DHT22;60613;48.658;2.328;2023-03-07T20:08:47;22.30;26.30
72576;DHT22;60613;48.658;2.328;2023-03-07T20:11:21;22.20;26.30
72576;DHT22;60613;48.658;2.328;2023-03-07T20:13:47;22.20;26.20
72576;DHT22;60613;48.658;2.328;2023-03-07T20:16:15;22.20;26.20
72576;DHT22;60613;48.658;2.328;2023-03-07T20:18:41;22.20;26.20
72576;DHT22;60613;48.658;2.328;2023-03-07T20:21:09;22.20;26.20
72576;DHT22;60613;48.658;2.328;2023-03-07T20:23:35;22.20;26.20
72576;DHT22;60613;48.658;2.328;2023-03-07T20:26:06;22.20;26.30
72576;DHT22;60613;48.658;2.328;2023-03-07T20:28:32;22.20;26.30
72576;DHT22;60613;48.658;2.328;2023-03-07T20:30:58;22.20;26.30
72576;DHT22;60613;48.658;2.328;2023-03-07T20:33:24;22.20;27.20
72576;DHT22;60613;48.658;2.328;2023-03-07T20:36:02;22.30;26.30
72576;DHT22;60613;48.658;2.328;2023-03-07T20:38:30;22.30;26.40
72576;DHT22;60613;48.658;2.328;2023-03-07T20:41:00;22.30;26.30
72576;DHT22;60613;48.658;2.328;2023-03-07T20:43:26;22.30;26.30
72576;DHT22;60613;48.658;2.328;2023-03-07T20:45:52;22.30;26.30
72576;DHT22;60613;48.658;2.328;2023-03-07T20:48:18;22.30;26.30
72576;DHT22;60613;48.658;2.328;2023-03-07T20:50:43;22.30;26.30
72576;DHT22;60613;48.658;2.328;2023-03-07T20:53:09;22.30;26.40
72576;DHT22;60613;48.658;2.328;2023-03-07T20:55:34;22.30;26.40
72576;DHT22;60613;48.658;2.328;2023-03-07T20:58:00;22.30;26.30
72576;DHT22;60613;48.658;2.328;2023-03-07T21:00:25;22.30;26.30
72576;DHT22;60613;48.658;2.328;2023-03-07T21:02:51;22.30;26.40
72576;DHT22;60613;48.658;2.328;2023-03-07T21:05:16;22.30;26.40
72576;DHT22;60613;48.658;2.328;2023-03-07T21:07:42;22.30;26.40
72576;DHT22;60613;48.658;2.328;2023-03-07T21:10:08;22.30;26.40
72576;DHT22;60613;48.658;2.328;2023-03-07T21:12:34;22.30;26.40
72576;DHT22;60613;48.658;2.328;2023-03-07T21:15:00;22.30;26.40
72576;DHT22;60613;48.658;2.328;2023-03-07T21:17:26;22.30;26.30
72576;DHT22;60613;48.658;2.328;2023-03-07T21:19:51;22.30;26.40
72576;DHT22;60613;48.658;2.328;2023-03-07T21:22:17;22.30;26.40
72576;DHT22;60613;48.658;2.328;2023-03-07T21:24:43;22.30;26.40
72576;DHT22;60613;48.658;2.328;2023-03-07T21:27:09;22.20;26.50
72576;DHT22;60613;48.658;2.328;2023-03-07T21:29:35;22.30;26.40
72576;DHT22;60613;48.658;2.328;2023-03-07T21:32:00;22.30;26.60
72576;DHT22;60613;48.658;2.328;2023-03-07T21:34:26;22.30;26.70
72576;DHT22;60613;48.658;2.328;2023-03-07T21:36:51;22.30;26.70
72576;DHT22;60613;48.658;2.328;2023-03-07T21:39:24;22.30;26.80
72576;DHT22;60613;48.658;2.328;2023-03-07T21:41:50;22.30;26.80
72576;DHT22;60613;48.658;2.328;2023-03-07T21:44:16;22.30;26.90
72576;DHT22;60613;48.658;2.328;2023-03-07T21:46:41;22.30;26.90
72576;DHT22;60613;48.658;2.328;2023-03-07T21:49:08;22.30;26.70
72576;DHT22;60613;48.658;2.328;2023-03-07T21:51:34;22.30;26.70
72576;DHT22;60613;48.658;2.328;2023-03-07T21:53:59;22.30;26.60
72576;DHT22;60613;48.658;2.328;2023-03-07T21:56:25;22.30;26.80
72576;DHT22;60613;48.658;2.328;2023-03-07T21:58:51;22.30;26.80
